sensor_id;sensor_type;location;lat;lon;timestamp;temperature;humidity
67603;DHT22;54417;47.454;18.918;2023-08-08T00:01:02;13.30;82.59
67603;DHT22;54417;47.454;18.918;2023-08-08T00:06:06;13.35;82.17
67603;DHT22;54417;47.454;18.918;2023-08-08T00:11:14;13.43;82.15
67603;DHT22;54417;47.454;18.918;2023-08-08T00:16:24;13.34;83.47
67603;DHT22;54417;47.454;18.918;2023-08-08T00:21:33;13.31;83.14
67603;DHT22;54417;47.454;18.918;2023-08-08T00:26:41;13.33;82.99
67603;DHT22;54417;47.454;18.918;2023-08-08T00:31:51;13.35;83.01
67603;DHT22;54417;47.454;18.918;2023-08-08T00:36:59;13.31;83.49
67603;DHT22;54417;47.454;18.918;2023-08-08T00:42:03;13.17;83.55
67603;DHT22;54417;47.454;18.918;2023-08-08T00:47:13;13.21;83.95
67603;DHT22;54417;47.454;18.918;2023-08-08T00:52:22;13.24;83.89
67603;DHT22;54417;47.454;18.918;2023-08-08T00:57:30;13.23;83.73
67603;DHT22;54417;47.454;18.918;2023-08-08T01:02:40;13.26;83.91
67603;DHT22;54417;47.454;18.918;2023-08-08T01:07:51;13.28;84.53
67603;DHT22;54417;47.454;18.918;2023-08-08T01:13:02;13.30;84.39
67603;DHT22;54417;47.454;18.918;2023-08-08T01:18:13;13.10;84.36
67603;DHT22;54417;47.454;18.918;2023-08-08T01:23:24;13.02;85.16
67603;DHT22;54417;47.454;18.918;2023-08-08T01:28:36;12.99;85.27
67603;DHT22;54417;47.454;18.918;2023-08-08T01:33:44;12.92;85.36
67603;DHT22;54417;47.454;18.918;2023-08-08T01:38:48;12.85;85.78
67603;DHT22;54417;47.454;18.918;2023-08-08T01:43:53;12.82;86.08
67603;DHT22;54417;47.454;18.918;2023-08-08T01:49:04;12.76;86.47
67603;DHT22;54417;47.454;18.918;2023-08-08T01:54:12;12.76;86.58
67603;DHT22;54417;47.454;18.918;2023-08-08T01:59:22;12.72;86.70
67603;DHT22;54417;47.454;18.918;2023-08-08T02:04:31;12.65;87.23
67603;DHT22;54417;47.454;18.918;2023-08-08T02:09:40;12.63;87.35
67603;DHT22;54417;47.454;18.918;2023-08-08T02:14:50;12.53;87.44
67603;DHT22;54417;47.454;18.918;2023-08-08T02:19:58;12.48;87.69
67603;DHT22;54417;47.454;18.918;2023-08-08T02:25:07;12.44;88.11
67603;DHT22;54417;47.454;18.918;2023-08-08T02:30:17;12.35;88.22
67603;DHT22;54417;47.454;18.918;2023-08-08T02:35:26;12.29;88.44
67603;DHT22;54417;47.454;18.918;2023-08-08T02:40:34;12.20;89.03
67603;DHT22;54417;47.454;18.918;2023-08-08T02:45:39;12.05;89.42
67603;DHT22;54417;47.454;18.918;2023-08-08T02:50:48;12.00;89.96
67603;DHT22;54417;47.454;18.918;2023-08-08T02:56:00;11.90;89.73
67603;DHT22;54417;47.454;18.918;2023-08-08T03:01:15;11.79;90.11
67603;DHT22;54417;47.454;18.918;2023-08-08T03:06:26;11.69;90.60
67603;DHT22;54417;47.454;18.918;2023-08-08T03:11:36;11.72;90.19
67603;DHT22;54417;47.454;18.918;2023-08-08T03:16:53;11.65;90.75
67603;DHT22;54417;47.454;18.918;2023-08-08T03:22:02;11.60;90.97
67603;DHT22;54417;47.454;18.918;2023-08-08T03:27:13;11.60;91.11
67603;DHT22;54417;47.454;18.918;2023-08-08T03:32:24;11.51;91.18
67603;DHT22;54417;47.454;18.918;2023-08-08T03:37:32;11.38;91.58
67603;DHT22;54417;47.454;18.918;2023-08-08T03:42:42;11.24;92.23
67603;DHT22;54417;47.454;18.918;2023-08-08T03:47:52;11.19;93.01
67603;DHT22;54417;47.454;18.918;2023-08-08T03:52:56;11.21;92.59
67603;DHT22;54417;47.454;18.918;2023-08-08T03:58:05;11.28;92.42
67603;DHT22;54417;47.454;18.918;2023-08-08T04:03:10;11.31;91.81
67603;DHT22;54417;47.454;18.918;2023-08-08T04:08:16;11.40;91.41
67603;DHT22;54417;47.454;18.918;2023-08-08T04:13:27;11.58;90.98
67603;DHT22;54417;47.454;18.918;2023-08-08T04:18:37;11.76;90.48
67603;DHT22;54417;47.454;18.918;2023-08-08T04:23:40;12.01;88.61
67603;DHT22;54417;47.454;18.918;2023-08-08T04:28:49;12.53;85.53
67603;DHT22;54417;47.454;18.918;2023-08-08T04:33:59;12.92;83.79
67603;DHT22;54417;47.454;18.918;2023-08-08T04:39:08;13.04;83.37
67603;DHT22;54417;47.454;18.918;2023-08-08T04:44:17;13.28;82.26
67603;DHT22;54417;47.454;18.918;2023-08-08T04:49:27;13.44;81.62
67603;DHT22;54417;47.454;18.918;2023-08-08T04:54:36;13.78;80.28
67603;DHT22;54417;47.454;18.918;2023-08-08T04:59:44;13.93;79.31
67603;DHT22;54417;47.454;18.918;2023-08-08T05:04:49;14.17;79.59
67603;DHT22;54417;47.454;18.918;2023-08-08T05:09:58;14.34;77.60
67603;DHT22;54417;47.454;18.918;2023-08-08T05:15:07;14.59;77.25
67603;DHT22;54417;47.454;18.918;2023-08-08T05:20:17;14.75;77.11
67603;DHT22;54417;47.454;18.918;2023-08-08T05:25:25;14.87;77.21
67603;DHT22;54417;47.454;18.918;2023-08-08T05:30:29;15.09;77.08
67603;DHT22;54417;47.454;18.918;2023-08-08T05:35:39;15.28;75.62
67603;DHT22;54417;47.454;18.918;2023-08-08T05:40:47;15.49;75.74
67603;DHT22;54417;47.454;18.918;2023-08-08T05:45:56;15.73;74.33
67603;DHT22;54417;47.454;18.918;2023-08-08T05:51:01;15.90;74.10
67603;DHT22;54417;47.454;18.918;2023-08-08T05:56:12;16.17;72.63
67603;DHT22;54417;47.454;18.918;2023-08-08T06:01:15;16.33;71.19
67603;DHT22;54417;47.454;18.918;2023-08-08T06:06:25;16.49;71.59
67603;DHT22;54417;47.454;18.918;2023-08-08T06:11:34;16.51;69.46
67603;DHT22;54417;47.454;18.918;2023-08-08T06:16:42;16.53;69.94
67603;DHT22;54417;47.454;18.918;2023-08-08T06:21:52;16.91;69.42
67603;DHT22;54417;47.454;18.918;2023-08-08T06:27:00;17.38;68.38
67603;DHT22;54417;47.454;18.918;2023-08-08T06:32:04;17.81;66.18
67603;DHT22;54417;47.454;18.918;2023-08-08T06:37:14;17.71;66.05
67603;DHT22;54417;47.454;18.918;2023-08-08T06:42:22;18.31;65.50
67603;DHT22;54417;47.454;18.918;2023-08-08T06:47:36;18.11;66.42
67603;DHT22;54417;47.454;18.918;2023-08-08T06:52:46;18.71;64.52
67603;DHT22;54417;47.454;18.918;2023-08-08T06:57:54;18.71;63.02
67603;DHT22;54417;47.454;18.918;2023-08-08T07:03:03;18.87;63.15
67603;DHT22;54417;47.454;18.918;2023-08-08T07:08:13;19.03;63.17
67603;DHT22;54417;47.454;18.918;2023-08-08T07:13:22;19.41;62.02
67603;DHT22;54417;47.454;18.918;2023-08-08T07:18:31;19.19;61.19
67603;DHT22;54417;47.454;18.918;2023-08-08T07:23:41;18.31;61.54
67603;DHT22;54417;47.454;18.918;2023-08-08T07:28:50;18.24;62.14
67603;DHT22;54417;47.454;18.918;2023-08-08T07:33:59;18.24;63.03
67603;DHT22;54417;47.454;18.918;2023-08-08T07:39:09;18.50;62.62
67603;DHT22;54417;47.454;18.918;2023-08-08T07:44:18;18.81;62.00
67603;DHT22;54417;47.454;18.918;2023-08-08T07:49:21;18.69;61.38
67603;DHT22;54417;47.454;18.918;2023-08-08T07:54:31;19.19;62.22
67603;DHT22;54417;47.454;18.918;2023-08-08T07:59:39;19.88;60.48
67603;DHT22;54417;47.454;18.918;2023-08-08T08:04:48;19.86;58.45
67603;DHT22;54417;47.454;18.918;2023-08-08T08:09:58;19.78;58.52
67603;DHT22;54417;47.454;18.918;2023-08-08T08:15:07;19.92;58.05
67603;DHT22;54417;47.454;18.918;2023-08-08T08:20:16;20.23;57.41
67603;DHT22;54417;47.454;18.918;2023-08-08T08:25:25;20.21;56.75
67603;DHT22;54417;47.454;18.918;2023-08-08T08:30:29;20.62;55.91
67603;DHT22;54417;47.454;18.918;2023-08-08T08:35:37;20.83;54.42
67603;DHT22;54417;47.454;18.918;2023-08-08T08:40:47;21.05;54.59
67603;DHT22;54417;47.454;18.918;2023-08-08T08:45:56;21.17;54.87
67603;DHT22;54417;47.454;18.918;2023-08-08T08:51:07;21.50;54.42
67603;DHT22;54417;47.454;18.918;2023-08-08T08:56:17;21.60;55.88
67603;DHT22;54417;47.454;18.918;2023-08-08T09:01:21;21.82;53.43
67603;DHT22;54417;47.454;18.918;2023-08-08T09:06:31;21.55;53.23
67603;DHT22;54417;47.454;18.918;2023-08-08T09:11:41;21.34;52.73
67603;DHT22;54417;47.454;18.918;2023-08-08T09:16:50;20.84;55.53
67603;DHT22;54417;47.454;18.918;2023-08-08T09:22:01;21.32;55.14
67603;DHT22;54417;47.454;18.918;2023-08-08T09:27:11;21.59;55.32
67603;DHT22;54417;47.454;18.918;2023-08-08T09:32:19;22.13;52.89
67603;DHT22;54417;47.454;18.918;2023-08-08T09:37:28;22.34;52.11
67603;DHT22;54417;47.454;18.918;2023-08-08T09:42:39;22.27;52.63
67603;DHT22;54417;47.454;18.918;2023-08-08T09:47:48;22.40;51.33
67603;DHT22;54417;47.454;18.918;2023-08-08T09:52:57;22.43;51.27
67603;DHT22;54417;47.454;18.918;2023-08-08T09:58:07;22.44;50.80
67603;DHT22;54417;47.454;18.918;2023-08-08T10:03:16;22.48;51.68
67603;DHT22;54417;47.454;18.918;2023-08-08T10:08:25;22.81;50.99
67603;DHT22;54417;47.454;18.918;2023-08-08T10:13:35;22.96;48.87
67603;DHT22;54417;47.454;18.918;2023-08-08T10:18:43;22.82;50.60
67603;DHT22;54417;47.454;18.918;2023-08-08T10:24:01;22.56;51.18
67603;DHT22;54417;47.454;18.918;2023-08-08T10:29:17;22.71;51.54
67603;DHT22;54417;47.454;18.918;2023-08-08T10:34:27;22.72;49.68
67603;DHT22;54417;47.454;18.918;2023-08-08T10:39:36;22.89;49.40
67603;DHT22;54417;47.454;18.918;2023-08-08T10:44:50;23.10;50.94
67603;DHT22;54417;47.454;18.918;2023-08-08T10:49:59;23.28;49.32
67603;DHT22;54417;47.454;18.918;2023-08-08T10:55:17;23.47;49.36
67603;DHT22;54417;47.454;18.918;2023-08-08T11:00:28;23.33;48.15
67603;DHT22;54417;47.454;18.918;2023-08-08T11:05:37;23.62;48.78
67603;DHT22;54417;47.454;18.918;2023-08-08T11:10:50;23.75;48.30
67603;DHT22;54417;47.454;18.918;2023-08-08T11:15:56;23.31;47.08
67603;DHT22;54417;47.454;18.918;2023-08-08T11:21:09;23.62;47.57
67603;DHT22;54417;47.454;18.918;2023-08-08T11:26:24;23.51;47.99
67603;DHT22;54417;47.454;18.918;2023-08-08T11:31:36;23.06;49.46
67603;DHT22;54417;47.454;18.918;2023-08-08T11:36:44;22.76;48.81
67603;DHT22;54417;47.454;18.918;2023-08-08T11:41:53;22.93;49.20
67603;DHT22;54417;47.454;18.918;2023-08-08T11:47:04;22.81;48.33
67603;DHT22;54417;47.454;18.918;2023-08-08T11:52:08;23.22;49.18
67603;DHT22;54417;47.454;18.918;2023-08-08T11:57:17;22.93;47.21
67603;DHT22;54417;47.454;18.918;2023-08-08T12:02:22;22.56;49.84
67603;DHT22;54417;47.454;18.918;2023-08-08T12:07:31;22.83;48.71
67603;DHT22;54417;47.454;18.918;2023-08-08T12:12:40;22.89;47.64
67603;DHT22;54417;47.454;18.918;2023-08-08T12:17:53;22.98;49.40
67603;DHT22;54417;47.454;18.918;2023-08-08T12:22:56;23.16;45.35
67603;DHT22;54417;47.454;18.918;2023-08-08T12:28:05;22.96;45.36
67603;DHT22;54417;47.454;18.918;2023-08-08T12:33:15;22.96;47.58
67603;DHT22;54417;47.454;18.918;2023-08-08T12:38:24;23.28;47.70
67603;DHT22;54417;47.454;18.918;2023-08-08T12:43:32;23.54;46.24
67603;DHT22;54417;47.454;18.918;2023-08-08T12:48:42;23.78;44.10
67603;DHT22;54417;47.454;18.918;2023-08-08T12:53:51;23.65;45.14
67603;DHT22;54417;47.454;18.918;2023-08-08T12:59:00;23.51;45.91
67603;DHT22;54417;47.454;18.918;2023-08-08T13:04:11;23.92;43.90
67603;DHT22;54417;47.454;18.918;2023-08-08T13:09:25;24.71;44.09
67603;DHT22;54417;47.454;18.918;2023-08-08T13:14:34;24.32;43.50
67603;DHT22;54417;47.454;18.918;2023-08-08T13:19:44;23.09;44.36
67603;DHT22;54417;47.454;18.918;2023-08-08T13:24:53;21.77;49.47
67603;DHT22;54417;47.454;18.918;2023-08-08T13:30:01;20.87;51.74
67603;DHT22;54417;47.454;18.918;2023-08-08T13:35:11;20.73;51.11
67603;DHT22;54417;47.454;18.918;2023-08-08T13:40:15;20.71;49.79
67603;DHT22;54417;47.454;18.918;2023-08-08T13:45:23;21.12;49.14
67603;DHT22;54417;47.454;18.918;2023-08-08T13:50:33;21.29;48.62
67603;DHT22;54417;47.454;18.918;2023-08-08T13:55:42;21.27;47.53
67603;DHT22;54417;47.454;18.918;2023-08-08T14:00:51;20.95;48.88
67603;DHT22;54417;47.454;18.918;2023-08-08T14:06:02;20.94;49.12
67603;DHT22;54417;47.454;18.918;2023-08-08T14:11:10;20.98;49.65
67603;DHT22;54417;47.454;18.918;2023-08-08T14:16:19;21.31;49.81
67603;DHT22;54417;47.454;18.918;2023-08-08T14:21:28;21.60;48.85
67603;DHT22;54417;47.454;18.918;2023-08-08T14:26:37;21.35;49.71
67603;DHT22;54417;47.454;18.918;2023-08-08T14:31:46;21.58;48.81
67603;DHT22;54417;47.454;18.918;2023-08-08T14:37:08;22.28;46.93
67603;DHT22;54417;47.454;18.918;2023-08-08T14:42:18;22.56;46.00
67603;DHT22;54417;47.454;18.918;2023-08-08T14:47:27;22.92;46.95
67603;DHT22;54417;47.454;18.918;2023-08-08T14:52:32;22.85;45.57
67603;DHT22;54417;47.454;18.918;2023-08-08T14:57:40;23.03;44.91
67603;DHT22;54417;47.454;18.918;2023-08-08T15:02:49;23.00;45.44
67603;DHT22;54417;47.454;18.918;2023-08-08T15:07:59;23.00;45.69
67603;DHT22;54417;47.454;18.918;2023-08-08T15:13:08;23.78;47.47
67603;DHT22;54417;47.454;18.918;2023-08-08T15:18:16;26.16;39.98
67603;DHT22;54417;47.454;18.918;2023-08-08T15:23:27;28.52;36.40
67603;DHT22;54417;47.454;18.918;2023-08-08T15:28:35;29.84;34.70
67603;DHT22;54417;47.454;18.918;2023-08-08T15:33:44;30.68;33.28
67603;DHT22;54417;47.454;18.918;2023-08-08T15:38:49;30.75;32.07
67603;DHT22;54417;47.454;18.918;2023-08-08T15:43:57;28.68;36.39
67603;DHT22;54417;47.454;18.918;2023-08-08T15:49:06;27.14;39.41
67603;DHT22;54417;47.454;18.918;2023-08-08T15:54:16;26.08;39.71
67603;DHT22;54417;47.454;18.918;2023-08-08T15:59:25;25.15;42.73
67603;DHT22;54417;47.454;18.918;2023-08-08T16:04:34;24.71;43.45
67603;DHT22;54417;47.454;18.918;2023-08-08T16:09:44;24.33;43.34
67603;DHT22;54417;47.454;18.918;2023-08-08T16:14:53;23.81;43.54
67603;DHT22;54417;47.454;18.918;2023-08-08T16:20:01;23.37;47.43
67603;DHT22;54417;47.454;18.918;2023-08-08T16:25:11;22.92;49.11
67603;DHT22;54417;47.454;18.918;2023-08-08T16:30:20;22.66;48.42
67603;DHT22;54417;47.454;18.918;2023-08-08T16:35:28;22.35;49.95
67603;DHT22;54417;47.454;18.918;2023-08-08T16:40:38;22.20;51.91
67603;DHT22;54417;47.454;18.918;2023-08-08T16:45:47;22.11;53.35
67603;DHT22;54417;47.454;18.918;2023-08-08T16:50:55;21.77;57.17
67603;DHT22;54417;47.454;18.918;2023-08-08T16:56:05;21.29;58.27
67603;DHT22;54417;47.454;18.918;2023-08-08T17:01:14;20.91;60.35
67603;DHT22;54417;47.454;18.918;2023-08-08T17:06:23;20.53;62.65
67603;DHT22;54417;47.454;18.918;2023-08-08T17:11:32;20.26;64.47
67603;DHT22;54417;47.454;18.918;2023-08-08T17:16:41;20.02;66.74
67603;DHT22;54417;47.454;18.918;2023-08-08T17:21:52;19.74;67.30
67603;DHT22;54417;47.454;18.918;2023-08-08T17:27:02;19.37;70.04
67603;DHT22;54417;47.454;18.918;2023-08-08T17:32:10;18.99;66.65
67603;DHT22;54417;47.454;18.918;2023-08-08T17:37:20;18.89;72.27
67603;DHT22;54417;47.454;18.918;2023-08-08T17:42:30;18.75;73.58
67603;DHT22;54417;47.454;18.918;2023-08-08T17:47:39;18.47;74.21
67603;DHT22;54417;47.454;18.918;2023-08-08T17:52:47;18.11;72.48
67603;DHT22;54417;47.454;18.918;2023-08-08T17:57:57;17.93;75.16
67603;DHT22;54417;47.454;18.918;2023-08-08T18:03:06;17.62;74.20
67603;DHT22;54417;47.454;18.918;2023-08-08T18:08:14;17.51;75.14
67603;DHT22;54417;47.454;18.918;2023-08-08T18:13:24;17.02;76.60
67603;DHT22;54417;47.454;18.918;2023-08-08T18:18:33;16.73;74.47
67603;DHT22;54417;47.454;18.918;2023-08-08T18:23:41;16.56;76.30
67603;DHT22;54417;47.454;18.918;2023-08-08T18:28:51;16.46;78.90
67603;DHT22;54417;47.454;18.918;2023-08-08T18:34:00;16.26;80.59
67603;DHT22;54417;47.454;18.918;2023-08-08T18:39:09;16.00;79.72
67603;DHT22;54417;47.454;18.918;2023-08-08T18:44:14;15.81;81.39
67603;DHT22;54417;47.454;18.918;2023-08-08T18:49:22;15.61;83.32
67603;DHT22;54417;47.454;18.918;2023-08-08T18:54:31;15.44;83.49
67603;DHT22;54417;47.454;18.918;2023-08-08T18:59:41;15.42;82.51
67603;DHT22;54417;47.454;18.918;2023-08-08T19:04:49;15.29;81.17
67603;DHT22;54417;47.454;18.918;2023-08-08T19:10:00;15.23;83.72
67603;DHT22;54417;47.454;18.918;2023-08-08T19:15:10;14.95;84.16
67603;DHT22;54417;47.454;18.918;2023-08-08T19:20:18;14.81;85.25
67603;DHT22;54417;47.454;18.918;2023-08-08T19:25:22;14.74;85.00
67603;DHT22;54417;47.454;18.918;2023-08-08T19:30:32;14.60;85.74
67603;DHT22;54417;47.454;18.918;2023-08-08T19:35:37;14.50;86.29
67603;DHT22;54417;47.454;18.918;2023-08-08T19:40:45;14.45;86.14
67603;DHT22;54417;47.454;18.918;2023-08-08T19:45:55;14.27;86.58
67603;DHT22;54417;47.454;18.918;2023-08-08T19:51:04;14.16;85.11
67603;DHT22;54417;47.454;18.918;2023-08-08T19:56:08;14.06;86.34
67603;DHT22;54417;47.454;18.918;2023-08-08T20:01:19;14.02;86.76
67603;DHT22;54417;47.454;18.918;2023-08-08T20:06:29;13.98;87.16
67603;DHT22;54417;47.454;18.918;2023-08-08T20:11:37;13.76;88.17
67603;DHT22;54417;47.454;18.918;2023-08-08T20:16:49;13.65;88.78
67603;DHT22;54417;47.454;18.918;2023-08-08T20:21:53;13.48;89.19
67603;DHT22;54417;47.454;18.918;2023-08-08T20:26:59;13.31;89.64
67603;DHT22;54417;47.454;18.918;2023-08-08T20:32:09;13.03;90.87
67603;DHT22;54417;47.454;18.918;2023-08-08T20:37:18;12.95;91.12
67603;DHT22;54417;47.454;18.918;2023-08-08T20:42:22;12.95;90.79
67603;DHT22;54417;47.454;18.918;2023-08-08T20:47:32;12.82;91.95
67603;DHT22;54417;47.454;18.918;2023-08-08T20:52:37;12.72;92.35
67603;DHT22;54417;47.454;18.918;2023-08-08T20:57:45;12.60;92.69
67603;DHT22;54417;47.454;18.918;2023-08-08T21:02:55;12.58;92.81
67603;DHT22;54417;47.454;18.918;2023-08-08T21:08:04;12.41;92.99
67603;DHT22;54417;47.454;18.918;2023-08-08T21:13:12;12.32;93.13
67603;DHT22;54417;47.454;18.918;2023-08-08T21:18:18;12.28;93.64
67603;DHT22;54417;47.454;18.918;2023-08-08T21:23:27;12.27;93.43
67603;DHT22;54417;47.454;18.918;2023-08-08T21:28:35;12.17;93.03
67603;DHT22;54417;47.454;18.918;2023-08-08T21:33:45;12.13;93.02
67603;DHT22;54417;47.454;18.918;2023-08-08T21:38:49;12.02;93.20
67603;DHT22;54417;47.454;18.918;2023-08-08T21:43:57;11.94;93.15
67603;DHT22;54417;47.454;18.918;2023-08-08T21:49:07;11.91;93.09
67603;DHT22;54417;47.454;18.918;2023-08-08T21:54:16;11.80;93.20
67603;DHT22;54417;47.454;18.918;2023-08-08T21:59:19;11.77;93.14
67603;DHT22;54417;47.454;18.918;2023-08-08T22:04:29;11.56;93.69
67603;DHT22;54417;47.454;18.918;2023-08-08T22:09:37;11.53;94.05
67603;DHT22;54417;47.454;18.918;2023-08-08T22:14:46;11.36;94.57
67603;DHT22;54417;47.454;18.918;2023-08-08T22:19:56;11.22;94.93
67603;DHT22;54417;47.454;18.918;2023-08-08T22:25:05;11.39;94.70
67603;DHT22;54417;47.454;18.918;2023-08-08T22:30:13;11.36;94.34
67603;DHT22;54417;47.454;18.918;2023-08-08T22:35:23;11.44;94.10
67603;DHT22;54417;47.454;18.918;2023-08-08T22:40:27;11.40;93.81
67603;DHT22;54417;47.454;18.918;2023-08-08T22:45:36;11.35;94.05
67603;DHT22;54417;47.454;18.918;2023-08-08T22:50:46;11.35;93.90
67603;DHT22;54417;47.454;18.918;2023-08-08T22:55:54;11.15;93.81
67603;DHT22;54417;47.454;18.918;2023-08-08T23:01:03;11.08;94.02
67603;DHT22;54417;47.454;18.918;2023-08-08T23:06:14;11.16;93.83
67603;DHT22;54417;47.454;18.918;2023-08-08T23:11:22;11.14;93.95
67603;DHT22;54417;47.454;18.918;2023-08-08T23:16:26;10.90;94.55
67603;DHT22;54417;47.454;18.918;2023-08-08T23:21:35;10.85;94.48
67603;DHT22;54417;47.454;18.918;2023-08-08T23:26:44;10.74;94.51
67603;DHT22;54417;47.454;18.918;2023-08-08T23:31:52;10.66;94.58
67603;DHT22;54417;47.454;18.918;2023-08-08T23:37:05;10.60;94.57
67603;DHT22;54417;47.454;18.918;2023-08-08T23:42:23;10.47;95.17
67603;DHT22;54417;47.454;18.918;2023-08-08T23:47:31;10.46;94.93
67603;DHT22;54417;47.454;18.918;2023-08-08T23:52:41;10.53;94.78
67603;DHT22;54417;47.454;18.918;2023-08-08T23:57:50;10.43;94.76
